Time;durP1;ratioP1;P1;durP2;ratioP2;P2;SDS_P1;SDS_P2;PMS_P1;PMS_P2;Temp;Humidity;BMP_temperature;BMP_pressure;BME280_temperature;BME280_humidity;BME280_pressure;Samples;Min_cycle;Max_cycle;Signal;HPM_P1;HPM_P2
2023/11/21 00:00:11;;;;;;;77.97;25.53;;;7.50;99.90;;;;;;5023546;28;20688;-56
2023/11/21 00:03:19;;;;;;;89.00;27.67;;;7.40;99.90;;;;;;5029555;28;20228;-56
2023/11/21 00:05:49;;;;;;;90.77;28.37;;;7.50;99.90;;;;;;5021471;28;20217;-57
2023/11/21 00:08:18;;;;;;;102.87;28.10;;;7.50;99.90;;;;;;5033048;28;20228;-56
2023/11/21 00:10:47;;;;;;;99.27;29.03;;;7.50;99.90;;;;;;5026812;28;20275;-55
2023/11/21 00:13:17;;;;;;;104.50;29.23;;;7.50;99.90;;;;;;5027330;28;20217;-56
2023/11/21 00:15:47;;;;;;;96.17;29.27;;;7.50;99.90;;;;;;5024391;28;20561;-56
2023/11/21 00:18:16;;;;;;;89.20;27.90;;;7.50;99.90;;;;;;5030524;28;20584;-56
2023/11/21 00:20:44;;;;;;;82.50;28.67;;;7.50;99.90;;;;;;5039031;28;20224;-56
2023/11/21 00:23:13;;;;;;;97.00;29.80;;;7.50;99.90;;;;;;5045256;28;20227;-56
2023/11/21 00:25:41;;;;;;;85.57;26.77;;;7.60;99.90;;;;;;5051912;28;20190;-54
2023/11/21 00:28:09;;;;;;;91.83;29.00;;;7.60;99.90;;;;;;5052372;28;20262;-55
2023/11/21 00:30:38;;;;;;;101.17;29.70;;;7.60;99.90;;;;;;5054761;28;20234;-56
2023/11/21 00:33:08;;;;;;;102.87;30.57;;;7.60;99.90;;;;;;5050443;28;20228;-55
2023/11/21 00:35:36;;;;;;;88.30;28.20;;;7.70;99.90;;;;;;5050431;28;20220;-56
2023/11/21 00:38:04;;;;;;;108.57;29.83;;;7.70;99.90;;;;;;5049423;28;20307;-55
2023/11/21 00:40:32;;;;;;;93.17;29.57;;;7.70;99.90;;;;;;5046986;28;20906;-55
2023/11/21 00:43:01;;;;;;;87.23;29.50;;;7.70;99.90;;;;;;5051644;28;20225;-55
2023/11/21 00:45:32;;;;;;;94.90;31.77;;;7.80;99.90;;;;;;5035386;28;20233;-55
2023/11/21 00:48:00;;;;;;;92.53;30.27;;;7.80;99.90;;;;;;5045151;28;20217;-54
2023/11/21 00:50:30;;;;;;;95.47;30.97;;;7.80;99.90;;;;;;5051500;28;20231;-55
2023/11/21 00:52:58;;;;;;;86.80;31.33;;;7.90;99.90;;;;;;5048922;28;20636;-54
2023/11/21 00:55:27;;;;;;;119.37;34.07;;;7.90;99.90;;;;;;5050612;28;20274;-53
2023/11/21 00:57:56;;;;;;;93.10;31.30;;;7.90;99.90;;;;;;5050491;28;20228;-55
2023/11/21 01:00:24;;;;;;;99.13;31.03;;;7.90;99.90;;;;;;5050867;28;20216;-55
2023/11/21 01:02:52;;;;;;;107.87;32.90;;;8.00;99.90;;;;;;5049240;28;20972;-54
2023/11/21 01:05:21;;;;;;;91.30;31.23;;;8.00;99.90;;;;;;5050537;28;20664;-53
2023/11/21 01:07:50;;;;;;;88.00;31.87;;;8.00;99.90;;;;;;5051843;28;20185;-57
2023/11/21 01:10:18;;;;;;;99.07;32.93;;;8.10;99.90;;;;;;5047658;28;20193;-55
2023/11/21 01:12:47;;;;;;;103.13;32.30;;;8.10;99.90;;;;;;5051368;28;20664;-55
2023/11/21 01:15:18;;;;;;;100.13;32.47;;;8.10;99.90;;;;;;5051588;28;20224;-55
2023/11/21 01:17:46;;;;;;;93.03;31.90;;;8.10;99.90;;;;;;5051376;28;20228;-55
2023/11/21 01:20:15;;;;;;;106.83;33.60;;;8.20;99.90;;;;;;5048245;28;20224;-54
2023/11/21 01:22:44;;;;;;;98.90;32.03;;;8.20;99.90;;;;;;5050331;28;20548;-55
2023/11/21 01:25:14;;;;;;;95.10;31.37;;;8.20;99.90;;;;;;5051690;28;20196;-55
2023/11/21 01:27:42;;;;;;;101.77;35.10;;;8.20;99.90;;;;;;5051305;28;20687;-55
2023/11/21 01:30:11;;;;;;;106.17;34.20;;;8.20;99.90;;;;;;5050922;28;20221;-55
2023/11/21 01:32:40;;;;;;;90.40;33.87;;;8.20;99.90;;;;;;5050682;28;20228;-55
2023/11/21 01:35:11;;;;;;;101.47;32.50;;;8.20;99.90;;;;;;5048875;28;20228;-55
2023/11/21 01:37:39;;;;;;;85.83;31.90;;;8.20;99.90;;;;;;5044131;28;20186;-54
2023/11/21 01:40:09;;;;;;;102.97;34.77;;;8.20;99.90;;;;;;5042225;28;20232;-55
2023/11/21 01:42:39;;;;;;;97.03;32.47;;;8.20;99.90;;;;;;5050474;28;20221;-55
2023/11/21 01:45:09;;;;;;;91.50;33.33;;;8.20;99.90;;;;;;5038148;28;20228;-55
2023/11/21 01:47:39;;;;;;;84.63;30.27;;;8.20;99.90;;;;;;5045693;28;20303;-53
2023/11/21 01:50:09;;;;;;;83.37;31.63;;;8.10;99.90;;;;;;5044742;28;20275;-54
2023/11/21 01:52:40;;;;;;;98.97;33.73;;;8.10;99.90;;;;;;5042439;28;20279;-55
2023/11/21 01:55:10;;;;;;;107.10;35.40;;;8.10;99.90;;;;;;5050338;28;20676;-55
2023/11/21 01:57:40;;;;;;;92.10;35.10;;;8.10;99.90;;;;;;5048354;28;20228;-53
2023/11/21 02:00:16;;;;;;;89.20;31.87;;;8.10;99.90;;;;;;5046174;28;20220;-55
2023/11/21 02:03:02;;;;;;;84.40;31.57;;;8.10;99.90;;;;;;5046226;28;20307;-55
2023/11/21 02:08:55;;;;;;;74.50;28.77;;;8.10;99.90;;;;;;5048901;28;20278;-56
2023/11/21 02:11:24;;;;;;;75.53;30.10;;;8.20;99.90;;;;;;5042125;28;20232;-55
2023/11/21 02:13:53;;;;;;;80.30;27.77;;;8.20;99.90;;;;;;5044422;28;20197;-56
2023/11/21 02:16:22;;;;;;;81.97;30.30;;;8.20;99.90;;;;;;5038936;28;20282;-56
2023/11/21 02:18:52;;;;;;;81.40;30.50;;;8.20;99.90;;;;;;5048022;28;20252;-56
2023/11/21 02:21:20;;;;;;;82.27;30.80;;;8.20;99.90;;;;;;5045781;28;20248;-54
2023/11/21 02:23:51;;;;;;;83.13;33.17;;;8.20;99.90;;;;;;5049100;28;20217;-55
2023/11/21 02:26:20;;;;;;;81.70;29.60;;;8.20;99.90;;;;;;5044942;28;20243;-54
2023/11/21 02:28:48;;;;;;;82.80;30.90;;;8.20;99.90;;;;;;5046895;28;20189;-54
2023/11/21 02:31:16;;;;;;;92.33;32.13;;;8.20;99.90;;;;;;5054144;28;20208;-56
2023/11/21 02:33:45;;;;;;;82.37;33.00;;;8.20;99.90;;;;;;5053458;28;20234;-54
2023/11/21 02:36:13;;;;;;;95.60;32.80;;;8.20;99.90;;;;;;5041703;28;20228;-54
2023/11/21 02:38:42;;;;;;;83.40;29.27;;;8.20;99.90;;;;;;5051606;28;20253;-55
2023/11/21 02:41:13;;;;;;;83.23;30.30;;;8.20;99.90;;;;;;5044219;28;20221;-53
2023/11/21 02:43:41;;;;;;;92.63;29.93;;;8.20;99.90;;;;;;5046068;28;20192;-51
2023/11/21 02:46:10;;;;;;;87.40;29.13;;;8.20;99.90;;;;;;5055122;28;20219;-53
2023/11/21 02:48:38;;;;;;;90.67;30.73;;;8.20;99.90;;;;;;5051758;28;20233;-55
2023/11/21 02:51:06;;;;;;;78.57;27.57;;;8.20;99.90;;;;;;5049125;28;20229;-54
2023/11/21 02:53:35;;;;;;;84.83;28.50;;;8.30;99.90;;;;;;5048812;28;20232;-54
2023/11/21 02:56:03;;;;;;;90.90;30.70;;;8.30;99.90;;;;;;5045649;28;20229;-54
2023/11/21 02:58:32;;;;;;;77.10;29.60;;;8.30;99.90;;;;;;5054858;28;20634;-56
2023/11/21 03:01:01;;;;;;;78.37;29.50;;;8.30;99.90;;;;;;5057460;28;20560;-54
2023/11/21 03:03:30;;;;;;;80.53;28.90;;;8.30;99.90;;;;;;5042095;28;20236;-55
2023/11/21 03:05:58;;;;;;;74.17;28.73;;;8.30;99.90;;;;;;5052353;28;20246;-56
2023/11/21 03:08:26;;;;;;;88.97;30.93;;;8.30;99.90;;;;;;5051598;28;20228;-54
2023/11/21 03:10:54;;;;;;;92.43;30.37;;;8.30;99.90;;;;;;5044846;28;20189;-54
2023/11/21 03:13:23;;;;;;;77.63;28.90;;;8.30;99.90;;;;;;5046642;28;20705;-55
2023/11/21 03:15:52;;;;;;;80.27;28.37;;;8.30;99.90;;;;;;5048371;28;20216;-56
2023/11/21 03:18:21;;;;;;;80.67;29.17;;;8.30;99.90;;;;;;5054699;28;20304;-55
2023/11/21 03:20:50;;;;;;;77.00;28.07;;;8.30;99.90;;;;;;5053656;28;20308;-56
2023/11/21 03:23:18;;;;;;;78.00;29.47;;;8.30;99.90;;;;;;5054247;28;20219;-54
2023/11/21 03:25:46;;;;;;;78.50;28.70;;;8.30;99.90;;;;;;5055971;28;20204;-55
2023/11/21 03:28:15;;;;;;;87.60;28.93;;;8.30;99.90;;;;;;5054439;28;20189;-54
2023/11/21 03:30:43;;;;;;;75.23;26.90;;;8.30;99.90;;;;;;5047545;28;20209;-55
2023/11/21 03:33:13;;;;;;;72.57;28.00;;;8.30;99.90;;;;;;5053553;28;20748;-54
2023/11/21 03:35:44;;;;;;;74.93;28.30;;;8.30;99.90;;;;;;5047722;28;20606;-56
2023/11/21 03:38:13;;;;;;;74.43;27.27;;;8.30;99.90;;;;;;5048871;28;20248;-55
2023/11/21 03:40:41;;;;;;;84.07;27.53;;;8.30;99.90;;;;;;5051419;28;20205;-56
2023/11/21 03:43:09;;;;;;;72.70;26.23;;;8.30;99.90;;;;;;5044218;28;20231;-54
2023/11/21 03:45:40;;;;;;;85.37;28.87;;;8.30;99.90;;;;;;5047291;28;20224;-55
2023/11/21 03:48:08;;;;;;;90.50;30.10;;;8.30;99.90;;;;;;5046350;28;20585;-56
2023/11/21 03:50:38;;;;;;;85.73;29.73;;;8.30;99.90;;;;;;5041087;28;20247;-56
2023/11/21 03:53:06;;;;;;;87.97;28.53;;;8.30;99.90;;;;;;5048730;28;20220;-56
2023/11/21 03:55:34;;;;;;;81.97;27.37;;;8.30;99.90;;;;;;5041704;28;20629;-56
2023/11/21 03:58:03;;;;;;;71.20;26.73;;;8.30;99.90;;;;;;5048304;28;20755;-56
2023/11/21 04:00:32;;;;;;;72.90;26.03;;;8.30;99.90;;;;;;5044760;28;20221;-55
2023/11/21 04:03:00;;;;;;;71.87;26.37;;;8.30;99.90;;;;;;5047965;28;20221;-55
2023/11/21 04:05:29;;;;;;;77.50;28.47;;;8.30;99.90;;;;;;5050998;28;20219;-56
2023/11/21 04:07:58;;;;;;;72.10;27.20;;;8.40;99.90;;;;;;5039229;28;20197;-56
2023/11/21 04:10:27;;;;;;;70.57;26.53;;;8.30;99.90;;;;;;5046155;28;20189;-55
2023/11/21 04:12:55;;;;;;;83.17;27.30;;;8.30;99.90;;;;;;5050249;28;20706;-54
2023/11/21 04:15:23;;;;;;;78.93;26.57;;;8.30;99.90;;;;;;5052316;28;20746;-54
2023/11/21 04:17:52;;;;;;;74.17;27.30;;;8.30;99.90;;;;;;5049562;28;20691;-55
2023/11/21 04:20:20;;;;;;;86.93;27.47;;;8.30;99.90;;;;;;5047270;28;20305;-54
2023/11/21 04:22:48;;;;;;;70.17;26.47;;;8.30;99.90;;;;;;5044306;28;20264;-53
2023/11/21 04:25:18;;;;;;;69.10;26.17;;;8.30;99.90;;;;;;5036547;28;20198;-53
2023/11/21 04:27:47;;;;;;;61.93;25.63;;;8.40;99.90;;;;;;5049628;28;20687;-55
2023/11/21 04:30:15;;;;;;;65.20;25.83;;;8.40;99.90;;;;;;5044888;28;20217;-55
2023/11/21 04:32:44;;;;;;;61.03;24.83;;;8.40;99.90;;;;;;5052744;28;20221;-55
2023/11/21 04:35:12;;;;;;;63.93;24.27;;;8.40;99.90;;;;;;5050487;28;20298;-53
2023/11/21 04:37:40;;;;;;;64.73;23.63;;;8.40;99.90;;;;;;5040559;28;20192;-55
2023/11/21 04:40:10;;;;;;;78.43;26.90;;;8.40;99.90;;;;;;5050797;28;20293;-54
2023/11/21 04:42:39;;;;;;;71.47;27.07;;;8.40;99.90;;;;;;5051751;28;20571;-54
2023/11/21 04:45:11;;;;;;;68.57;26.80;;;8.50;99.90;;;;;;5050458;28;20216;-56
2023/11/21 04:47:39;;;;;;;77.87;28.40;;;8.50;99.90;;;;;;5053131;28;20315;-52
2023/11/21 04:50:08;;;;;;;63.23;24.70;;;8.50;99.90;;;;;;5052393;28;20233;-54
2023/11/21 04:52:36;;;;;;;94.00;31.80;;;8.50;99.90;;;;;;5050939;28;20193;-53
2023/11/21 04:55:06;;;;;;;90.60;30.87;;;8.50;99.90;;;;;;5040238;28;20217;-54
2023/11/21 04:57:34;;;;;;;67.47;24.60;;;8.50;99.90;;;;;;5051171;28;20224;-56
2023/11/21 05:00:05;;;;;;;74.23;26.23;;;8.50;99.90;;;;;;5051803;28;20242;-55
2023/11/21 05:02:35;;;;;;;56.80;23.03;;;8.50;99.90;;;;;;5051322;28;20571;-56
2023/11/21 05:05:05;;;;;;;80.17;31.23;;;8.50;99.90;;;;;;5034565;28;20223;-54
2023/11/21 05:07:35;;;;;;;77.17;28.63;;;8.50;99.90;;;;;;5046295;28;20235;-55
2023/11/21 05:10:07;;;;;;;77.43;28.80;;;8.40;99.90;;;;;;5035101;28;20718;-54
2023/11/21 05:12:37;;;;;;;95.77;33.23;;;8.50;99.90;;;;;;5043454;28;20213;-54
2023/11/21 05:15:09;;;;;;;90.60;34.97;;;8.50;99.90;;;;;;5051346;28;20220;-55
2023/11/21 05:17:38;;;;;;;100.50;36.30;;;8.50;99.90;;;;;;5049308;28;20252;-55
2023/11/21 05:20:09;;;;;;;98.57;35.80;;;8.50;99.90;;;;;;5043108;28;20224;-55
2023/11/21 05:22:38;;;;;;;94.63;34.07;;;8.40;99.90;;;;;;5051714;28;20250;-56
2023/11/21 05:25:08;;;;;;;90.37;32.27;;;8.40;99.90;;;;;;5044167;28;20221;-54
2023/11/21 05:27:36;;;;;;;90.67;33.10;;;8.40;99.90;;;;;;5050607;28;20216;-56
2023/11/21 05:30:09;;;;;;;87.20;33.47;;;8.50;99.90;;;;;;5048301;28;20228;-53
2023/11/21 05:32:37;;;;;;;84.93;31.67;;;8.50;99.90;;;;;;5045964;28;20224;-54
2023/11/21 05:35:09;;;;;;;69.43;29.40;;;8.40;99.90;;;;;;5051026;28;20596;-55
2023/11/21 05:37:38;;;;;;;87.57;29.10;;;8.40;99.90;;;;;;5060624;28;20280;-55
2023/11/21 05:40:08;;;;;;;71.17;28.87;;;8.40;99.90;;;;;;5047434;28;20307;-56
2023/11/21 05:42:37;;;;;;;87.63;29.53;;;8.40;99.90;;;;;;5045095;28;20221;-53
2023/11/21 05:45:10;;;;;;;67.70;26.47;;;8.40;99.90;;;;;;5051360;28;20262;-54
2023/11/21 05:47:40;;;;;;;87.20;27.27;;;8.40;99.90;;;;;;5045761;28;20248;-56
2023/11/21 05:50:14;;;;;;;66.77;24.00;;;8.40;99.90;;;;;;5043773;28;20619;-55
2023/11/21 05:52:45;;;;;;;65.47;26.37;;;8.50;99.90;;;;;;5043697;28;20283;-55
2023/11/21 05:55:14;;;;;;;73.47;27.27;;;8.50;99.90;;;;;;5051457;28;20279;-55
2023/11/21 05:57:44;;;;;;;90.70;27.80;;;8.50;99.90;;;;;;5044217;28;20220;-54
2023/11/21 06:00:20;;;;;;;81.97;28.20;;;8.50;99.90;;;;;;5046508;28;20221;-56
2023/11/21 06:02:52;;;;;;;74.60;27.60;;;8.50;99.90;;;;;;5043507;28;20213;-55
2023/11/21 06:05:23;;;;;;;73.53;30.87;;;8.60;99.90;;;;;;5054422;28;20228;-56
2023/11/21 06:07:52;;;;;;;84.40;32.83;;;8.60;99.90;;;;;;5046330;28;20554;-55
2023/11/21 06:10:23;;;;;;;78.13;29.87;;;8.60;99.90;;;;;;5044811;28;20203;-56
2023/11/21 06:12:52;;;;;;;93.33;31.97;;;8.60;99.90;;;;;;5042548;28;20216;-54
2023/11/21 06:15:23;;;;;;;88.77;30.10;;;8.70;99.90;;;;;;5049641;28;20258;-56
2023/11/21 06:17:53;;;;;;;85.50;28.77;;;8.70;99.90;;;;;;5051606;28;20307;-55
2023/11/21 06:20:23;;;;;;;75.50;26.30;;;8.70;99.90;;;;;;5048235;28;20243;-55
2023/11/21 06:22:51;;;;;;;73.93;25.23;;;8.70;99.90;;;;;;5053901;28;20235;-55
2023/11/21 06:25:20;;;;;;;81.90;27.57;;;8.70;99.90;;;;;;5052456;28;20283;-55
2023/11/21 06:27:49;;;;;;;93.80;32.27;;;8.70;99.90;;;;;;5050566;28;20597;-55
2023/11/21 06:30:19;;;;;;;69.13;26.67;;;8.70;99.90;;;;;;5051353;28;20216;-55
2023/11/21 06:32:51;;;;;;;77.63;27.33;;;8.60;99.90;;;;;;5051081;28;20209;-56
2023/11/21 06:35:20;;;;;;;122.67;39.40;;;8.70;99.90;;;;;;5047444;28;20235;-54
2023/11/21 06:37:48;;;;;;;125.53;38.63;;;8.70;99.90;;;;;;5050373;28;20296;-56
2023/11/21 06:40:19;;;;;;;110.43;36.43;;;8.70;99.90;;;;;;5049145;28;20200;-55
2023/11/21 06:42:49;;;;;;;103.83;33.87;;;8.70;99.90;;;;;;5045352;28;20221;-54
2023/11/21 06:45:18;;;;;;;86.97;31.27;;;8.70;99.90;;;;;;5053291;28;20212;-56
2023/11/21 06:47:46;;;;;;;73.50;28.97;;;8.80;99.90;;;;;;5051108;28;20225;-55
2023/11/21 06:50:16;;;;;;;90.23;32.40;;;8.80;99.90;;;;;;5039978;28;20727;-54
2023/11/21 06:52:45;;;;;;;91.50;29.77;;;8.80;99.90;;;;;;5055143;28;20196;-56
2023/11/21 06:55:13;;;;;;;83.27;28.10;;;8.80;99.90;;;;;;5057009;28;20208;-54
2023/11/21 06:57:41;;;;;;;107.27;33.10;;;8.90;99.90;;;;;;5038490;28;20213;-55
2023/11/21 07:00:11;;;;;;;114.60;36.90;;;8.90;99.90;;;;;;5054441;28;20240;-54
2023/11/21 07:02:39;;;;;;;133.33;42.77;;;8.90;99.90;;;;;;5046768;28;20224;-53
2023/11/21 07:05:08;;;;;;;118.07;38.50;;;8.90;99.90;;;;;;5051522;28;20221;-53
2023/11/21 07:07:38;;;;;;;116.23;36.50;;;8.90;99.90;;;;;;5046383;28;20199;-54
2023/11/21 07:10:09;;;;;;;129.97;38.17;;;8.90;99.90;;;;;;5049909;28;20236;-55
2023/11/21 07:12:37;;;;;;;119.93;39.10;;;9.00;99.90;;;;;;5050101;28;20220;-54
2023/11/21 07:15:09;;;;;;;111.77;36.10;;;9.00;99.90;;;;;;5049208;28;20311;-55
2023/11/21 07:17:37;;;;;;;127.10;36.03;;;9.10;99.90;;;;;;5052408;28;20239;-54
2023/11/21 07:20:10;;;;;;;131.33;35.67;;;9.10;99.90;;;;;;5052226;28;20239;-54
2023/11/21 07:22:40;;;;;;;107.57;31.33;;;9.10;99.90;;;;;;5048055;28;20201;-54
2023/11/21 07:25:10;;;;;;;106.27;30.00;;;9.10;99.90;;;;;;5051980;28;20262;-55
2023/11/21 07:27:38;;;;;;;112.07;31.13;;;9.10;99.90;;;;;;5050545;28;20227;-55
2023/11/21 07:30:09;;;;;;;121.87;31.93;;;9.10;99.90;;;;;;5045420;28;20220;-55
2023/11/21 07:32:39;;;;;;;123.27;31.87;;;9.20;99.90;;;;;;5043478;28;20231;-56
2023/11/21 07:35:09;;;;;;;128.23;31.07;;;9.20;99.90;;;;;;5045481;28;20232;-55
2023/11/21 07:37:39;;;;;;;103.13;28.83;;;9.20;99.90;;;;;;5046809;28;20540;-58
2023/11/21 07:40:09;;;;;;;125.37;29.90;;;9.30;99.90;;;;;;5050065;28;20227;-55
2023/11/21 07:42:37;;;;;;;115.87;29.83;;;9.30;99.90;;;;;;5051715;28;20362;-54
2023/11/21 07:45:08;;;;;;;116.10;28.37;;;9.30;99.90;;;;;;5045786;28;20244;-52
2023/11/21 07:47:36;;;;;;;118.73;29.70;;;9.30;99.90;;;;;;5051046;28;20307;-51
2023/11/21 07:50:07;;;;;;;121.07;29.57;;;9.30;99.90;;;;;;5041016;28;20223;-55
2023/11/21 07:52:36;;;;;;;114.23;28.60;;;9.40;99.90;;;;;;5048194;28;20527;-54
2023/11/21 07:55:07;;;;;;;121.13;28.77;;;9.40;99.90;;;;;;5045052;28;20267;-54
2023/11/21 07:57:35;;;;;;;128.73;29.07;;;9.40;99.90;;;;;;5045457;28;20224;-54
2023/11/21 08:00:06;;;;;;;138.83;29.40;;;9.50;99.90;;;;;;5042442;28;20220;-54
2023/11/21 08:02:34;;;;;;;116.73;28.07;;;9.50;99.90;;;;;;5045703;28;20231;-54
2023/11/21 08:05:03;;;;;;;129.97;28.20;;;9.60;99.90;;;;;;5040427;28;20694;-53
2023/11/21 08:07:33;;;;;;;137.67;26.83;;;9.60;99.90;;;;;;5048599;28;20197;-55
2023/11/21 08:10:24;;;;;;;150.27;29.77;;;9.60;99.90;;;;;;5043435;28;20274;-55
2023/11/21 08:13:14;;;;;;;134.63;27.57;;;9.70;99.90;;;;;;5044037;28;20208;-55
2023/11/21 08:16:04;;;;;;;139.13;29.43;;;9.70;99.90;;;;;;5039275;28;20230;-52
2023/11/21 08:18:33;;;;;;;176.37;29.73;;;9.70;99.90;;;;;;5045126;28;20240;-55
2023/11/21 08:21:03;;;;;;;160.97;29.30;;;9.70;99.90;;;;;;5050332;28;20706;-54
2023/11/21 08:23:31;;;;;;;173.23;29.73;;;9.70;99.90;;;;;;5043619;28;20229;-53
2023/11/21 08:26:03;;;;;;;147.07;29.30;;;9.70;99.90;;;;;;5040574;28;20200;-55
2023/11/21 08:28:36;;;;;;;160.40;30.60;;;9.80;99.90;;;;;;5048983;28;20201;-55
2023/11/21 08:31:05;;;;;;;164.53;31.23;;;9.80;99.90;;;;;;5047385;28;20213;-55
2023/11/21 08:33:33;;;;;;;167.37;30.53;;;9.80;99.90;;;;;;5054319;28;20220;-55
2023/11/21 08:36:02;;;;;;;187.50;31.50;;;9.80;99.90;;;;;;5047999;28;20301;-56
2023/11/21 08:38:30;;;;;;;143.53;28.87;;;9.80;99.90;;;;;;5051463;28;20267;-56
2023/11/21 08:40:58;;;;;;;175.13;32.53;;;9.80;99.90;;;;;;5048199;28;20200;-56
2023/11/21 08:43:28;;;;;;;167.80;32.13;;;9.80;99.90;;;;;;5043744;28;20209;-55
2023/11/21 08:45:57;;;;;;;168.17;30.70;;;9.80;99.90;;;;;;5050512;28;20217;-53
2023/11/21 08:48:28;;;;;;;174.23;32.47;;;9.80;99.90;;;;;;5047559;28;20224;-56
2023/11/21 08:50:56;;;;;;;175.37;30.93;;;9.80;99.90;;;;;;5041736;28;20702;-55
2023/11/21 08:53:26;;;;;;;162.00;31.00;;;9.80;99.90;;;;;;5050183;28;20643;-55
2023/11/21 08:55:54;;;;;;;156.37;30.57;;;9.80;99.90;;;;;;5045972;28;20280;-54
2023/11/21 08:58:23;;;;;;;145.83;29.13;;;9.90;99.90;;;;;;5041161;28;20577;-56
2023/11/21 09:00:52;;;;;;;160.77;33.07;;;9.90;99.90;;;;;;5048262;28;20240;-55
2023/11/21 09:03:20;;;;;;;142.83;30.53;;;9.90;99.90;;;;;;5049574;28;20224;-55
2023/11/21 09:06:10;;;;;;;146.97;32.83;;;9.90;99.90;;;;;;5048280;28;20223;-54
2023/11/21 09:08:38;;;;;;;142.07;30.33;;;10.00;99.90;;;;;;5047823;28;20217;-54
2023/11/21 09:11:33;;;;;;;130.77;29.50;;;10.10;99.90;;;;;;5036065;28;20229;-55
2023/11/21 09:14:01;;;;;;;137.03;30.63;;;10.20;99.90;;;;;;5050983;28;20196;-55
2023/11/21 09:16:31;;;;;;;149.10;31.00;;;10.20;99.90;;;;;;5046789;28;20217;-55
2023/11/21 09:19:00;;;;;;;112.20;26.80;;;10.20;99.90;;;;;;5040587;28;20216;-51
2023/11/21 09:21:30;;;;;;;111.10;28.33;;;10.30;99.90;;;;;;5046064;28;20232;-55
2023/11/21 09:23:58;;;;;;;100.73;26.93;;;10.30;99.90;;;;;;5048647;28;20224;-57
2023/11/21 09:26:29;;;;;;;98.83;26.57;;;10.40;99.90;;;;;;5045481;28;20231;-57
2023/11/21 09:28:58;;;;;;;86.57;25.90;;;10.50;99.90;;;;;;5038471;28;20776;-56
2023/11/21 09:31:27;;;;;;;86.57;22.43;;;10.50;99.90;;;;;;5047403;28;20652;-54
2023/11/21 09:33:57;;;;;;;75.27;23.07;;;10.40;99.90;;;;;;5044724;28;20240;-55
2023/11/21 09:36:27;;;;;;;74.97;23.50;;;10.40;99.90;;;;;;5063020;28;20220;-56
2023/11/21 09:39:17;;;;;;;80.80;24.07;;;10.50;99.90;;;;;;5055642;28;20282;-54
2023/11/21 09:41:50;;;;;;;74.97;23.47;;;10.50;99.90;;;;;;5055721;28;20501;-54
2023/11/21 09:44:23;;;;;;;90.97;24.27;;;10.60;99.90;;;;;;5053405;28;20246;-56
2023/11/21 09:46:54;;;;;;;76.33;23.20;;;10.70;99.90;;;;;;5053931;28;20230;-56
2023/11/21 09:49:26;;;;;;;80.23;24.17;;;10.80;99.90;;;;;;5047567;28;20199;-56
2023/11/21 09:51:57;;;;;;;71.53;22.10;;;10.90;99.90;;;;;;5049767;28;20701;-55
2023/11/21 09:54:26;;;;;;;75.60;22.83;;;11.00;99.90;;;;;;5051514;28;20244;-56
2023/11/21 09:56:55;;;;;;;76.17;23.57;;;11.10;99.90;;;;;;5054728;28;20634;-56
2023/11/21 09:59:43;;;;;;;70.37;21.90;;;11.20;99.90;;;;;;5054405;28;20216;-56
2023/11/21 10:02:35;;;;;;;68.03;22.00;;;11.40;99.90;;;;;;5053345;28;20224;-56
2023/11/21 10:05:06;;;;;;;60.47;22.30;;;11.40;99.90;;;;;;5047171;28;20318;-55
2023/11/21 10:07:35;;;;;;;56.83;20.47;;;11.50;99.90;;;;;;5049887;28;20193;-55
2023/11/21 10:10:09;;;;;;;62.13;20.90;;;11.60;99.90;;;;;;5056503;28;20262;-56
2023/11/21 10:12:38;;;;;;;57.03;21.67;;;11.70;99.90;;;;;;5048472;28;20304;-55
2023/11/21 10:15:11;;;;;;;54.47;20.43;;;11.80;99.90;;;;;;5047828;28;20225;-55
2023/11/21 10:18:18;;;;;;;44.33;19.10;;;12.10;99.90;;;;;;5059451;28;20232;-55
2023/11/21 10:21:07;;;;;;;51.63;18.97;;;12.20;99.90;;;;;;5053751;28;20308;-56
2023/11/21 10:23:35;;;;;;;37.07;17.47;;;12.50;99.90;;;;;;5046026;28;20217;-56
2023/11/21 10:26:05;;;;;;;35.80;16.10;;;12.50;99.90;;;;;;5056676;28;20223;-54
2023/11/21 10:28:57;;;;;;;30.77;14.60;;;12.50;99.90;;;;;;5053583;28;20200;-53
2023/11/21 10:31:26;;;;;;;34.00;14.03;;;12.10;99.90;;;;;;5055873;28;20205;-56
2023/11/21 10:33:54;;;;;;;32.70;14.10;;;12.00;99.90;;;;;;5085092;28;20568;-56
2023/11/21 10:36:44;;;;;;;25.10;11.97;;;12.20;99.90;;;;;;5048916;28;20233;-55
2023/11/21 10:39:50;;;;;;;25.73;11.87;;;12.30;99.90;;;;;;5054239;28;20217;-55
2023/11/21 10:42:20;;;;;;;25.63;10.03;;;12.30;99.90;;;;;;5052571;28;20775;-56
2023/11/21 10:44:50;;;;;;;20.03;8.80;;;12.30;99.90;;;;;;5051008;28;20583;-54
2023/11/21 10:47:22;;;;;;;13.10;7.20;;;12.50;99.90;;;;;;5051293;28;20209;-53
2023/11/21 10:49:53;;;;;;;13.57;8.20;;;12.60;99.90;;;;;;5044671;28;20648;-55
2023/11/21 10:52:27;;;;;;;14.33;7.73;;;12.70;99.90;;;;;;5051292;28;20193;-55
2023/11/21 10:54:58;;;;;;;15.90;8.03;;;12.50;99.90;;;;;;5049893;28;20706;-55
2023/11/21 10:57:27;;;;;;;11.90;7.90;;;12.30;99.90;;;;;;5047815;28;20272;-55
2023/11/21 10:59:55;;;;;;;9.17;6.37;;;12.20;99.90;;;;;;5048756;28;20223;-55
2023/11/21 11:02:27;;;;;;;10.07;5.93;;;12.10;99.90;;;;;;5045750;28;20240;-54
2023/11/21 11:04:58;;;;;;;8.00;5.80;;;11.90;99.90;;;;;;5049046;28;20240;-55
2023/11/21 11:07:30;;;;;;;11.13;5.77;;;11.80;99.90;;;;;;5046097;28;20192;-56
2023/11/21 11:13:22;;;;;;;8.53;5.47;;;11.60;99.90;;;;;;5046705;28;20625;-55
2023/11/21 11:16:30;;;;;;;11.90;5.50;;;11.60;99.90;;;;;;5049889;28;20295;-55
2023/11/21 11:22:51;;;;;;;11.03;4.50;;;11.50;99.90;;;;;;5046004;28;20555;-55
2023/11/21 11:25:36;;;;;;;8.23;3.80;;;11.60;99.90;;;;;;5050224;28;20219;-56
2023/11/21 11:28:08;;;;;;;6.80;3.90;;;11.70;99.90;;;;;;5038701;28;20228;-54
2023/11/21 11:31:03;;;;;;;6.47;3.80;;;11.70;99.90;;;;;;5043419;28;20599;-54
2023/11/21 11:33:39;;;;;;;8.00;4.10;;;11.80;99.90;;;;;;5045916;28;20307;-56
2023/11/21 11:36:12;;;;;;;10.60;4.10;;;11.80;99.90;;;;;;5050076;28;20314;-56
2023/11/21 11:39:02;;;;;;;11.07;4.33;;;11.90;99.90;;;;;;5039604;28;20227;-53
2023/11/21 11:41:36;;;;;;;9.20;3.60;;;12.10;99.90;;;;;;5050168;28;20221;-54
2023/11/21 11:44:45;;;;;;;7.30;3.70;;;12.30;99.90;;;;;;5041023;28;20283;-54
2023/11/21 11:47:33;;;;;;;9.80;3.30;;;12.60;99.90;;;;;;5043834;28;20224;-55
2023/11/21 11:50:07;;;;;;;8.07;3.07;;;12.70;99.90;;;;;;5044702;28;20226;-53
2023/11/21 11:52:38;;;;;;;5.47;3.13;;;12.60;99.90;;;;;;5040423;28;20192;-55
2023/11/21 11:55:13;;;;;;;5.70;3.20;;;12.50;99.90;;;;;;5047321;28;20217;-55
2023/11/21 11:57:43;;;;;;;7.17;3.63;;;12.40;99.90;;;;;;5044855;28;20208;-55
2023/11/21 12:00:20;;;;;;;5.77;3.13;;;12.30;99.90;;;;;;5043444;28;20222;-55
2023/11/21 12:02:51;;;;;;;4.93;3.70;;;12.30;99.90;;;;;;5045214;28;20215;-56
2023/11/21 12:05:21;;;;;;;5.50;3.10;;;12.30;99.90;;;;;;5047309;28;20259;-53
2023/11/21 12:07:52;;;;;;;9.50;3.60;;;12.10;99.90;;;;;;5045396;28;20680;-56
2023/11/21 12:10:24;;;;;;;7.37;3.53;;;11.90;99.90;;;;;;5048031;28;20197;-55
2023/11/21 12:12:54;;;;;;;4.37;3.37;;;11.80;99.90;;;;;;5038953;28;20225;-55
2023/11/21 12:15:23;;;;;;;4.13;3.70;;;11.70;99.90;;;;;;5073628;28;20575;-53
2023/11/21 12:17:51;;;;;;;6.40;3.70;;;11.70;99.90;;;;;;5049011;28;20232;-56
2023/11/21 12:20:21;;;;;;;4.37;3.30;;;11.60;99.90;;;;;;5045978;28;20236;-55
2023/11/21 12:22:51;;;;;;;10.60;3.90;;;11.50;99.90;;;;;;5047150;28;20232;-54
2023/11/21 12:25:22;;;;;;;7.70;3.60;;;11.40;99.90;;;;;;5044586;28;20217;-55
2023/11/21 12:27:53;;;;;;;11.40;3.47;;;11.50;99.90;;;;;;5051647;28;20220;-55
2023/11/21 12:30:22;;;;;;;8.13;3.40;;;11.60;99.90;;;;;;5040700;28;20212;-55
2023/11/21 12:32:52;;;;;;;4.07;3.30;;;11.60;99.90;;;;;;5040279;28;20233;-56
2023/11/21 12:35:22;;;;;;;8.80;3.60;;;11.60;99.90;;;;;;5043947;28;20299;-54
2023/11/21 12:37:52;;;;;;;4.77;3.67;;;11.60;99.90;;;;;;5052690;28;20638;-56
2023/11/21 12:40:22;;;;;;;12.70;3.73;;;11.60;99.90;;;;;;5045068;28;20200;-54
2023/11/21 12:42:54;;;;;;;5.83;3.90;;;11.50;99.90;;;;;;5038000;28;20221;-54
2023/11/21 12:45:25;;;;;;;5.60;3.60;;;11.50;99.90;;;;;;5047546;28;20706;-56
2023/11/21 12:47:59;;;;;;;8.23;3.87;;;11.60;99.90;;;;;;5044826;28;20225;-54
2023/11/21 12:50:31;;;;;;;12.73;3.80;;;11.60;99.90;;;;;;5046693;28;20578;-55
2023/11/21 12:53:02;;;;;;;8.30;4.33;;;11.60;99.90;;;;;;5040916;28;20195;-56
2023/11/21 12:55:37;;;;;;;7.87;4.27;;;11.60;99.90;;;;;;5044959;28;20192;-54
2023/11/21 12:58:08;;;;;;;7.33;4.53;;;11.60;99.90;;;;;;5043398;28;20260;-56
2023/11/21 13:00:39;;;;;;;7.27;5.00;;;11.60;99.90;;;;;;5051243;28;20217;-55
2023/11/21 13:03:08;;;;;;;9.33;5.50;;;11.60;99.90;;;;;;5042900;28;20236;-56